Time;durP1;ratioP1;P1;durP2;ratioP2;P2;SDS_P1;SDS_P2;PMS_P1;PMS_P2;Temp;Humidity;BMP_temperature;BMP_pressure;BME280_temperature;BME280_humidity;BME280_pressure;Samples;Min_cycle;Max_cycle;Signal;HPM_P1;HPM_P2
2022/06/16 00:00:31;;;;;;;4.28;2.83;;;;;;;;;;5138156;27;20065;-56
2022/06/16 00:02:56;;;;;;;3.00;1.73;;;;;;;;;;5142396;27;20501;-58
2022/06/16 00:05:23;;;;;;;5.05;1.92;;;;;;;;;;5142231;27;20038;-56
2022/06/16 00:07:49;;;;;;;6.03;2.95;;;;;;;;;;5141247;27;20043;-56
2022/06/16 00:10:24;;;;;;;4.20;1.83;;;;;;;;;;5141207;27;20035;-56
2022/06/16 00:12:53;;;;;;;5.75;2.92;;;;;;;;;;5142282;27;20050;-57
2022/06/16 00:15:21;;;;;;;5.60;1.92;;;;;;;;;;5140048;27;20096;-56
2022/06/16 00:17:46;;;;;;;2.90;1.95;;;;;;;;;;5138282;27;20123;-56
2022/06/16 00:20:12;;;;;;;3.35;2.05;;;;;;;;;;5141615;27;20532;-56
2022/06/16 00:22:37;;;;;;;15.98;2.72;;;;;;;;;;5142242;27;20645;-56
2022/06/16 00:25:03;;;;;;;5.22;3.00;;;;;;;;;;5139615;27;20534;-56
2022/06/16 00:27:29;;;;;;;4.15;2.85;;;;;;;;;;5135612;27;20038;-56
2022/06/16 00:29:54;;;;;;;3.20;1.77;;;;;;;;;;5144897;27;20069;-55
2022/06/16 00:32:20;;;;;;;9.23;2.60;;;;;;;;;;5135750;27;20112;-55
2022/06/16 00:34:45;;;;;;;7.93;2.65;;;;;;;;;;5139200;27;20042;-56
2022/06/16 00:37:10;;;;;;;11.95;3.65;;;;;;;;;;5140816;27;20042;-56
2022/06/16 00:39:36;;;;;;;3.15;1.92;;;;;;;;;;5142097;27;20469;-56
2022/06/16 00:42:08;;;;;;;3.63;2.28;;;;;;;;;;5141992;27;20089;-56
2022/06/16 00:44:34;;;;;;;3.17;2.15;;;;;;;;;;5137754;27;20038;-56
2022/06/16 00:46:59;;;;;;;8.52;2.20;;;;;;;;;;5140763;27;20031;-56
2022/06/16 00:49:25;;;;;;;5.25;2.38;;;;;;;;;;5139595;27;20107;-56
2022/06/16 00:51:52;;;;;;;2.58;1.70;;;;;;;;;;5139857;27;20051;-56
2022/06/16 00:54:17;;;;;;;2.92;2.22;;;;;;;;;;5142319;27;20050;-56
2022/06/16 00:56:43;;;;;;;10.02;2.80;;;;;;;;;;5138998;27;20043;-57
2022/06/16 00:59:09;;;;;;;2.42;1.33;;;;;;;;;;5140891;27;20059;-56
2022/06/16 01:01:36;;;;;;;8.65;2.78;;;;;;;;;;5140814;27;20455;-56
2022/06/16 01:06:46;;;;;;;4.20;2.25;;;;;;;;;;5137593;27;20095;-56
2022/06/16 01:09:12;;;;;;;6.93;2.67;;;;;;;;;;5138200;27;20046;-56
2022/06/16 01:14:41;;;;;;;14.45;2.70;;;;;;;;;;5136210;27;20069;-56
2022/06/16 01:17:23;;;;;;;3.05;1.75;;;;;;;;;;5139289;27;20129;-56
2022/06/16 01:20:01;;;;;;;5.25;2.47;;;;;;;;;;5139582;27;20041;-57
2022/06/16 01:22:27;;;;;;;3.33;1.70;;;;;;;;;;5134612;27;20050;-56
2022/06/16 01:24:55;;;;;;;4.13;2.03;;;;;;;;;;5136900;27;20046;-56
2022/06/16 01:27:24;;;;;;;8.23;2.03;;;;;;;;;;5137309;27;20051;-56
2022/06/16 01:29:58;;;;;;;2.88;1.70;;;;;;;;;;5139318;27;20469;-56
2022/06/16 01:32:39;;;;;;;2.85;1.92;;;;;;;;;;5135485;27;20057;-56
2022/06/16 01:35:10;;;;;;;4.75;3.08;;;;;;;;;;5142001;27;20080;-56
2022/06/16 01:37:54;;;;;;;7.03;3.20;;;;;;;;;;5141514;27;20121;-54
2022/06/16 01:40:29;;;;;;;5.03;3.28;;;;;;;;;;5136273;27;20046;-55
2022/06/16 01:43:02;;;;;;;2.67;2.10;;;;;;;;;;5138972;27;20458;-56
2022/06/16 01:45:50;;;;;;;2.58;2.03;;;;;;;;;;5137388;27;20543;-57
2022/06/16 01:48:16;;;;;;;4.88;1.95;;;;;;;;;;5125165;27;20035;-55
2022/06/16 01:50:44;;;;;;;14.20;3.42;;;;;;;;;;5139962;27;20121;-56
2022/06/16 01:53:16;;;;;;;6.50;2.97;;;;;;;;;;5140516;27;20050;-56
2022/06/16 01:55:46;;;;;;;5.70;3.15;;;;;;;;;;5139659;27;20261;-57
2022/06/16 01:58:21;;;;;;;19.90;3.97;;;;;;;;;;5139779;27;20097;-58
2022/06/16 02:00:48;;;;;;;7.93;1.42;;;;;;;;;;5138803;27;20049;-57
2022/06/16 02:03:20;;;;;;;4.85;2.58;;;;;;;;;;5119655;27;20039;-57
2022/06/16 02:05:54;;;;;;;11.70;3.25;;;;;;;;;;5135865;27;20046;-56
2022/06/16 02:08:22;;;;;;;8.82;2.55;;;;;;;;;;5139702;27;20051;-57
2022/06/16 02:10:49;;;;;;;2.72;2.40;;;;;;;;;;5139704;27;20049;-57
2022/06/16 02:13:17;;;;;;;2.38;1.77;;;;;;;;;;5139525;27;20066;-57
2022/06/16 02:15:43;;;;;;;3.90;3.00;;;;;;;;;;5142416;27;20095;-57
2022/06/16 02:18:10;;;;;;;5.15;2.70;;;;;;;;;;5141828;27;20667;-56
2022/06/16 02:20:44;;;;;;;5.30;3.05;;;;;;;;;;5136164;27;20058;-55
2022/06/16 02:23:10;;;;;;;2.60;1.80;;;;;;;;;;5143255;27;20047;-56
2022/06/16 02:25:35;;;;;;;8.38;2.92;;;;;;;;;;5140216;27;20050;-57
2022/06/16 02:28:00;;;;;;;2.55;1.55;;;;;;;;;;5139862;27;20093;-56
2022/06/16 02:30:28;;;;;;;4.18;2.55;;;;;;;;;;5140828;27;20050;-56
2022/06/16 02:32:56;;;;;;;3.20;2.30;;;;;;;;;;5143948;27;20043;-56
2022/06/16 02:35:37;;;;;;;7.15;2.47;;;;;;;;;;5142236;27;20494;-56
2022/06/16 02:38:12;;;;;;;2.97;1.48;;;;;;;;;;5142626;27;20047;-56
2022/06/16 02:40:38;;;;;;;7.15;2.22;;;;;;;;;;5141768;27;20413;-56
2022/06/16 02:43:09;;;;;;;5.32;2.53;;;;;;;;;;5140153;27;20062;-57
2022/06/16 02:45:38;;;;;;;3.17;1.98;;;;;;;;;;5140742;27;20059;-55
2022/06/16 02:48:12;;;;;;;7.80;2.78;;;;;;;;;;5143081;27;20095;-56
2022/06/16 02:51:01;;;;;;;4.65;2.85;;;;;;;;;;5141579;27;20062;-56
2022/06/16 02:53:36;;;;;;;3.03;1.75;;;;;;;;;;5126817;27;20038;-56
2022/06/16 02:56:05;;;;;;;8.70;2.25;;;;;;;;;;5142995;27;20211;-56
2022/06/16 02:58:32;;;;;;;24.98;3.17;;;;;;;;;;5145275;27;20520;-56
2022/06/16 03:00:59;;;;;;;3.42;1.52;;;;;;;;;;5138546;27;20144;-56
2022/06/16 03:03:24;;;;;;;5.57;2.95;;;;;;;;;;5139967;27;20078;-56
2022/06/16 03:05:51;;;;;;;3.65;1.85;;;;;;;;;;5142778;27;20485;-57
2022/06/16 03:08:16;;;;;;;3.17;1.75;;;;;;;;;;5137386;27;20051;-56
2022/06/16 03:10:51;;;;;;;8.05;2.20;;;;;;;;;;5139878;27;20046;-56
2022/06/16 03:13:16;;;;;;;3.90;2.47;;;;;;;;;;5140757;27;20051;-56
2022/06/16 03:15:42;;;;;;;2.58;2.30;;;;;;;;;;5140901;27;20047;-56
2022/06/16 03:18:07;;;;;;;2.35;1.83;;;;;;;;;;5140743;27;20046;-55
2022/06/16 03:20:33;;;;;;;11.57;2.15;;;;;;;;;;5140114;27;20104;-56
2022/06/16 03:22:58;;;;;;;3.38;1.92;;;;;;;;;;5142887;27;20047;-56
2022/06/16 03:25:24;;;;;;;20.23;3.08;;;;;;;;;;5139517;27;20377;-56
2022/06/16 03:27:49;;;;;;;3.35;2.20;;;;;;;;;;5141768;27;20642;-56
2022/06/16 03:30:14;;;;;;;11.45;2.50;;;;;;;;;;5139883;27;20031;-56
2022/06/16 03:32:40;;;;;;;4.85;3.13;;;;;;;;;;5141079;27;20467;-56
2022/06/16 03:35:06;;;;;;;6.90;2.58;;;;;;;;;;5140067;27;20039;-56
2022/06/16 03:37:31;;;;;;;2.85;1.92;;;;;;;;;;5141284;27;20590;-56
2022/06/16 03:39:56;;;;;;;10.93;2.08;;;;;;;;;;5137015;27;20031;-56
2022/06/16 03:42:21;;;;;;;2.72;1.60;;;;;;;;;;5142019;27;20188;-57
2022/06/16 03:44:47;;;;;;;7.85;2.88;;;;;;;;;;5139697;27;20039;-56
2022/06/16 03:47:12;;;;;;;3.15;2.38;;;;;;;;;;5137619;27;20047;-56
2022/06/16 03:49:37;;;;;;;7.38;2.72;;;;;;;;;;5141615;27;20115;-56
2022/06/16 03:52:03;;;;;;;6.05;2.70;;;;;;;;;;5142005;27;20171;-57
2022/06/16 03:54:28;;;;;;;3.30;1.90;;;;;;;;;;5141046;27;20049;-56
2022/06/16 03:56:53;;;;;;;25.40;2.42;;;;;;;;;;5134515;27;20164;-56
2022/06/16 03:59:21;;;;;;;2.97;1.67;;;;;;;;;;5142295;27;20107;-56
2022/06/16 04:01:47;;;;;;;2.38;1.70;;;;;;;;;;5142434;27;20070;-56
2022/06/16 04:04:12;;;;;;;3.13;2.33;;;;;;;;;;5141644;27;20057;-56
2022/06/16 04:06:37;;;;;;;42.90;4.30;;;;;;;;;;5139211;27;20043;-56
2022/06/16 04:09:03;;;;;;;12.02;3.35;;;;;;;;;;5138614;27;20047;-56
2022/06/16 04:11:30;;;;;;;10.25;2.42;;;;;;;;;;5136828;27;20145;-55
2022/06/16 04:14:00;;;;;;;3.90;2.38;;;;;;;;;;5143239;27;20062;-56
2022/06/16 04:16:46;;;;;;;2.80;2.30;;;;;;;;;;5140170;27;20043;-56
2022/06/16 04:19:13;;;;;;;5.53;2.28;;;;;;;;;;5138580;27;20055;-56
2022/06/16 04:21:39;;;;;;;3.70;2.33;;;;;;;;;;5140023;27;20502;-56
2022/06/16 04:24:04;;;;;;;3.97;3.22;;;;;;;;;;5141896;27;20047;-56
2022/06/16 04:26:30;;;;;;;4.38;2.72;;;;;;;;;;5133157;27;20043;-55
2022/06/16 04:28:55;;;;;;;11.15;2.72;;;;;;;;;;5140398;27;20035;-56
2022/06/16 04:31:21;;;;;;;15.75;2.35;;;;;;;;;;5136323;27;20147;-56
2022/06/16 04:33:46;;;;;;;7.47;2.88;;;;;;;;;;5142103;27;20449;-56
2022/06/16 04:36:12;;;;;;;22.35;2.90;;;;;;;;;;5139609;27;20089;-56
2022/06/16 04:38:37;;;;;;;15.90;3.05;;;;;;;;;;5136859;27;20039;-56
2022/06/16 04:41:03;;;;;;;14.63;3.35;;;;;;;;;;5134758;27;20567;-56
2022/06/16 04:43:29;;;;;;;3.60;1.63;;;;;;;;;;5139584;27;20518;-56
2022/06/16 04:45:55;;;;;;;7.68;2.75;;;;;;;;;;5137909;27;20047;-56
2022/06/16 04:48:21;;;;;;;5.20;1.73;;;;;;;;;;5135510;27;20510;-56
2022/06/16 04:50:46;;;;;;;3.97;2.60;;;;;;;;;;5137488;27;20067;-56
2022/06/16 04:53:11;;;;;;;3.40;2.40;;;;;;;;;;5140127;27;20045;-56
2022/06/16 04:55:37;;;;;;;5.57;3.05;;;;;;;;;;5140203;27;20073;-56
2022/06/16 04:58:03;;;;;;;12.05;3.78;;;;;;;;;;5139954;27;20050;-56
2022/06/16 05:00:28;;;;;;;5.68;2.72;;;;;;;;;;5139548;27;20100;-56
2022/06/16 05:02:54;;;;;;;5.45;2.83;;;;;;;;;;5140338;27;20099;-57
2022/06/16 05:05:19;;;;;;;8.32;4.43;;;;;;;;;;5140930;27;20108;-56
2022/06/16 05:07:44;;;;;;;11.63;3.80;;;;;;;;;;5140310;27;20035;-56
2022/06/16 05:10:11;;;;;;;14.20;2.40;;;;;;;;;;5137629;27;20568;-56
2022/06/16 05:12:37;;;;;;;8.23;3.20;;;;;;;;;;5142488;27;20153;-57
2022/06/16 05:15:02;;;;;;;10.60;3.97;;;;;;;;;;5142483;27;20118;-56
2022/06/16 05:17:27;;;;;;;3.30;2.47;;;;;;;;;;5140035;27;20042;-56
2022/06/16 05:19:52;;;;;;;3.55;2.70;;;;;;;;;;5140896;27;20121;-56
2022/06/16 05:22:19;;;;;;;10.55;4.05;;;;;;;;;;5141342;27;20705;-56
2022/06/16 05:24:44;;;;;;;5.20;2.53;;;;;;;;;;5138375;27;20049;-56
2022/06/16 05:27:09;;;;;;;21.38;5.15;;;;;;;;;;5136880;27;20390;-58
2022/06/16 05:29:35;;;;;;;4.15;3.03;;;;;;;;;;5137949;27;20473;-56
2022/06/16 05:32:00;;;;;;;3.95;2.95;;;;;;;;;;5137559;27;20076;-56
2022/06/16 05:34:25;;;;;;;19.42;3.33;;;;;;;;;;5136675;27;20053;-56
2022/06/16 05:36:51;;;;;;;10.75;2.80;;;;;;;;;;5137380;27;20043;-56
2022/06/16 05:39:16;;;;;;;20.10;3.92;;;;;;;;;;5137891;27;20042;-56
2022/06/16 05:41:41;;;;;;;38.58;5.45;;;;;;;;;;5138404;27;20126;-56
2022/06/16 05:44:08;;;;;;;22.50;4.72;;;;;;;;;;5141819;27;20053;-57
2022/06/16 05:46:33;;;;;;;11.45;4.65;;;;;;;;;;5139227;27;20050;-56
2022/06/16 05:48:58;;;;;;;7.40;3.42;;;;;;;;;;5138987;27;20030;-57
2022/06/16 05:51:24;;;;;;;22.15;3.90;;;;;;;;;;5138763;27;20398;-57
2022/06/16 05:53:49;;;;;;;7.63;4.63;;;;;;;;;;5139227;27;20042;-57
2022/06/16 05:56:15;;;;;;;26.50;6.40;;;;;;;;;;5136896;27;20046;-57
2022/06/16 05:58:40;;;;;;;73.72;17.08;;;;;;;;;;5139893;27;20035;-56
2022/06/16 06:01:06;;;;;;;10.52;4.30;;;;;;;;;;5138163;27;20046;-57
2022/06/16 06:03:31;;;;;;;12.90;3.95;;;;;;;;;;5138797;27;20042;-56
2022/06/16 06:05:59;;;;;;;12.45;3.17;;;;;;;;;;5135757;27;20027;-56
2022/06/16 06:16:40;;;;;;;10.10;5.00;;;;;;;;;;5138144;27;20060;-57
2022/06/16 06:21:58;;;;;;;17.75;4.35;;;;;;;;;;5140103;27;20065;-57
2022/06/16 06:24:23;;;;;;;11.95;4.03;;;;;;;;;;5138452;27;20043;-57
2022/06/16 06:26:49;;;;;;;6.40;4.15;;;;;;;;;;5137522;27;20039;-56
2022/06/16 06:29:14;;;;;;;15.10;6.05;;;;;;;;;;5136066;27;20089;-53
2022/06/16 06:31:39;;;;;;;16.33;7.45;;;;;;;;;;5137058;27;20058;-47
2022/06/16 06:34:05;;;;;;;15.98;6.85;;;;;;;;;;5140595;27;20070;-51
2022/06/16 06:36:30;;;;;;;17.75;6.25;;;;;;;;;;5138534;27;20065;-50
2022/06/16 06:38:55;;;;;;;42.80;10.30;;;;;;;;;;5134101;27;20043;-49
2022/06/16 06:41:22;;;;;;;12.02;7.85;;;;;;;;;;5135218;27;20515;-50
2022/06/16 06:43:47;;;;;;;6.80;3.83;;;;;;;;;;5136583;27;20044;-52
2022/06/16 06:46:12;;;;;;;10.18;4.47;;;;;;;;;;5138529;27;20058;-53
2022/06/16 06:48:38;;;;;;;3.13;2.28;;;;;;;;;;5139443;27;20561;-55
2022/06/16 06:51:03;;;;;;;10.05;2.95;;;;;;;;;;5135669;27;20039;-48
2022/06/16 06:53:28;;;;;;;6.15;2.05;;;;;;;;;;5135176;27;20042;-51
2022/06/16 06:55:54;;;;;;;29.98;6.00;;;;;;;;;;5138033;27;20063;-51
2022/06/16 06:58:20;;;;;;;14.18;3.85;;;;;;;;;;5138314;27;20078;-51
2022/06/16 07:00:46;;;;;;;12.73;2.67;;;;;;;;;;5137870;27;20135;-50
2022/06/16 07:03:11;;;;;;;36.65;14.73;;;;;;;;;;5141623;27;20038;-52
2022/06/16 07:05:37;;;;;;;10.05;2.13;;;;;;;;;;5139261;27;20572;-48
2022/06/16 07:08:02;;;;;;;1.88;1.50;;;;;;;;;;5139108;27;20573;-46
2022/06/16 07:10:28;;;;;;;5.00;3.42;;;;;;;;;;5144403;27;20034;-49
2022/06/16 07:12:54;;;;;;;52.78;45.00;;;;;;;;;;5141405;27;20055;-52
2022/06/16 07:15:19;;;;;;;202.25;183.25;;;;;;;;;;5140889;27;20058;-51
2022/06/16 07:17:45;;;;;;;74.20;66.75;;;;;;;;;;5143788;27;20050;-54
2022/06/16 07:20:13;;;;;;;22.83;16.05;;;;;;;;;;5143309;27;20682;-53
2022/06/16 07:22:38;;;;;;;68.13;56.15;;;;;;;;;;5138660;27;20043;-52
2022/06/16 07:25:04;;;;;;;21.10;18.58;;;;;;;;;;5139240;27;20126;-50
2022/06/16 07:27:30;;;;;;;323.77;126.68;;;;;;;;;;5141101;27;20113;-49
2022/06/16 07:29:55;;;;;;;1398.53;815.72;;;;;;;;;;5118760;27;20398;-50
2022/06/16 07:32:21;;;;;;;1757.13;991.13;;;;;;;;;;5119541;27;20042;-49
2022/06/16 07:34:46;;;;;;;1659.63;969.10;;;;;;;;;;5141002;27;20560;-49
2022/06/16 07:37:12;;;;;;;896.40;735.03;;;;;;;;;;5140120;27;20095;-47
2022/06/16 07:39:37;;;;;;;928.63;742.05;;;;;;;;;;5137654;27;20043;-49
2022/06/16 07:42:03;;;;;;;275.10;245.60;;;;;;;;;;5140519;27;20082;-50
2022/06/16 07:44:28;;;;;;;176.95;159.82;;;;;;;;;;5138565;27;20228;-53
2022/06/16 07:46:54;;;;;;;54.60;49.70;;;;;;;;;;5140778;27;20085;-52
2022/06/16 07:49:22;;;;;;;42.63;38.28;;;;;;;;;;5140520;27;20046;-51
2022/06/16 07:51:48;;;;;;;21.33;19.55;;;;;;;;;;5140060;27;20046;-51
2022/06/16 07:54:14;;;;;;;13.73;4.93;;;;;;;;;;5142910;27;20051;-48
2022/06/16 07:56:40;;;;;;;9.55;4.72;;;;;;;;;;5138066;27;20046;-49
2022/06/16 07:59:05;;;;;;;6.47;4.10;;;;;;;;;;5140845;27;20425;-49
2022/06/16 08:01:31;;;;;;;5.30;3.85;;;;;;;;;;5139109;27;20046;-50
2022/06/16 08:03:56;;;;;;;10.93;3.83;;;;;;;;;;5142535;27;20498;-46
2022/06/16 08:06:26;;;;;;;5.30;1.80;;;;;;;;;;5140199;27;20042;-47
2022/06/16 08:08:52;;;;;;;2.60;1.90;;;;;;;;;;5138190;27;20047;-47
2022/06/16 08:14:01;;;;;;;2.85;1.27;;;;;;;;;;5141404;27;20053;-50
2022/06/16 08:16:27;;;;;;;1.85;1.27;;;;;;;;;;5142356;27;20493;-47
2022/06/16 08:18:52;;;;;;;3.72;1.80;;;;;;;;;;5141754;27;20035;-47
2022/06/16 08:21:18;;;;;;;8.13;1.83;;;;;;;;;;5138045;27;20517;-50
2022/06/16 08:23:43;;;;;;;15.45;2.65;;;;;;;;;;5140848;27;20118;-50
2022/06/16 08:26:09;;;;;;;7.55;2.17;;;;;;;;;;5139910;27;20454;-50
2022/06/16 08:28:35;;;;;;;7.85;3.10;;;;;;;;;;5137878;27;20039;-48
2022/06/16 08:31:01;;;;;;;7.45;1.52;;;;;;;;;;5141719;27;20056;-49
2022/06/16 08:33:27;;;;;;;3.88;2.03;;;;;;;;;;5138885;27;20050;-49
2022/06/16 08:35:52;;;;;;;8.85;2.53;;;;;;;;;;5136217;27;20046;-46
2022/06/16 08:38:17;;;;;;;1.85;1.08;;;;;;;;;;5137822;27;20170;-50
2022/06/16 08:40:47;;;;;;;9.35;1.95;;;;;;;;;;5142501;27;20039;-50
2022/06/16 08:43:23;;;;;;;23.98;3.85;;;;;;;;;;5142937;27;20141;-47
2022/06/16 08:46:00;;;;;;;40.15;29.73;;;;;;;;;;5138984;27;20727;-51
2022/06/16 08:48:28;;;;;;;7.38;3.50;;;;;;;;;;5140010;27;20529;-51
2022/06/16 08:51:12;;;;;;;11.80;2.88;;;;;;;;;;5139358;27;20039;-52
2022/06/16 08:53:58;;;;;;;4.75;2.38;;;;;;;;;;5138313;27;20076;-47
2022/06/16 08:56:30;;;;;;;4.47;4.05;;;;;;;;;;5118680;27;20096;-50
2022/06/16 08:59:03;;;;;;;407.05;336.25;;;;;;;;;;5136242;27;20039;-57
2022/06/16 09:01:34;;;;;;;30.95;27.88;;;;;;;;;;5139396;27;20047;-47
2022/06/16 09:04:01;;;;;;;37.05;26.15;;;;;;;;;;5137704;27;20038;-47
2022/06/16 09:06:32;;;;;;;15.13;10.93;;;;;;;;;;5137148;27;20374;-51
2022/06/16 09:09:04;;;;;;;2.95;2.08;;;;;;;;;;5137984;27;20066;-51
2022/06/16 09:11:39;;;;;;;31.67;28.63;;;;;;;;;;5136841;27;20038;-49
2022/06/16 09:15:10;;;;;;;13.10;4.72;;;;;;;;;;5139804;27;20031;-51
2022/06/16 09:17:13;;;;;;;5.35;1.05;;;;;;;;;;5137191;27;20042;-48
2022/06/16 09:19:39;;;;;;;5.97;1.55;;;;;;;;;;5140318;27;20533;-46
2022/06/16 09:22:14;;;;;;;2.92;1.80;;;;;;;;;;5124517;27;20046;-49
2022/06/16 09:24:45;;;;;;;4.28;1.75;;;;;;;;;;5137577;27;20075;-50
2022/06/16 09:27:11;;;;;;;2.72;1.60;;;;;;;;;;5138471;27;20061;-46
2022/06/16 09:29:36;;;;;;;5.18;1.05;;;;;;;;;;5136887;27;20035;-48
2022/06/16 09:32:06;;;;;;;2.65;0.88;;;;;;;;;;5140920;27;20488;-45
2022/06/16 09:34:37;;;;;;;1.77;1.25;;;;;;;;;;5135921;27;20071;-44
2022/06/16 09:37:06;;;;;;;1.90;1.02;;;;;;;;;;5141366;27;20168;-50
2022/06/16 09:39:35;;;;;;;8.02;1.90;;;;;;;;;;5136611;27;20035;-49
2022/06/16 09:45:11;;;;;;;6.30;2.28;;;;;;;;;;5139725;27;20095;-48
2022/06/16 09:47:45;;;;;;;18.98;2.08;;;;;;;;;;5137454;27;20067;-46
2022/06/16 09:50:23;;;;;;;16.15;2.10;;;;;;;;;;5139515;27;20051;-47
2022/06/16 09:52:50;;;;;;;2.67;1.17;;;;;;;;;;5139181;27;20046;-48
2022/06/16 09:55:19;;;;;;;1.25;0.55;;;;;;;;;;5135489;27;20058;-46
2022/06/16 09:57:47;;;;;;;7.85;1.65;;;;;;;;;;5132008;27;20051;-47
2022/06/16 10:00:22;;;;;;;2.67;1.05;;;;;;;;;;5137639;27;20644;-47
2022/06/16 10:02:51;;;;;;;3.22;1.33;;;;;;;;;;5135281;27;20112;-49
2022/06/16 10:05:19;;;;;;;15.65;2.63;;;;;;;;;;5135518;27;20031;-48
2022/06/16 10:08:08;;;;;;;10.50;1.88;;;;;;;;;;5117069;27;20058;-48
2022/06/16 10:10:43;;;;;;;7.05;0.98;;;;;;;;;;5091614;27;20038;-47
2022/06/16 10:13:14;;;;;;;2.20;0.95;;;;;;;;;;5134816;27;20042;-47
2022/06/16 10:15:43;;;;;;;1.65;0.75;;;;;;;;;;5139194;27;20507;-51
2022/06/16 10:18:10;;;;;;;2.33;1.27;;;;;;;;;;5137603;27;20046;-47
2022/06/16 10:20:36;;;;;;;6.80;1.48;;;;;;;;;;5130853;27;20054;-49
2022/06/16 10:23:13;;;;;;;1.73;1.25;;;;;;;;;;5136126;27;20086;-48
2022/06/16 10:25:42;;;;;;;5.50;1.40;;;;;;;;;;5135674;27;20109;-47
2022/06/16 10:28:18;;;;;;;5.80;0.93;;;;;;;;;;5135325;27;20035;-51
2022/06/16 10:30:43;;;;;;;2.42;1.17;;;;;;;;;;5139294;27;20043;-46
2022/06/16 10:33:17;;;;;;;1.50;1.00;;;;;;;;;;5130496;27;20057;-44
2022/06/16 10:35:54;;;;;;;13.07;1.05;;;;;;;;;;5139689;27;20050;-46
2022/06/16 10:38:32;;;;;;;5.75;1.38;;;;;;;;;;5140648;27;20062;-48
2022/06/16 10:40:58;;;;;;;2.58;0.82;;;;;;;;;;5138690;27;20062;-47
2022/06/16 10:43:24;;;;;;;6.05;0.93;;;;;;;;;;5138369;27;20523;-47
2022/06/16 10:46:08;;;;;;;2.80;1.20;;;;;;;;;;5137300;27;20066;-45
2022/06/16 10:48:35;;;;;;;3.10;1.75;;;;;;;;;;5138369;27;20043;-49
2022/06/16 10:51:20;;;;;;;8.43;1.38;;;;;;;;;;5139606;27;20043;-48
2022/06/16 10:53:47;;;;;;;3.35;1.08;;;;;;;;;;5142194;27;20038;-48
2022/06/16 10:56:16;;;;;;;5.88;1.55;;;;;;;;;;5136291;27;20130;-50
2022/06/16 10:59:02;;;;;;;5.35;1.15;;;;;;;;;;5137036;27;20083;-51
2022/06/16 11:01:35;;;;;;;3.10;1.30;;;;;;;;;;5135057;27;20083;-49
2022/06/16 11:04:08;;;;;;;18.33;2.83;;;;;;;;;;5138189;27;20046;-46
2022/06/16 11:06:37;;;;;;;3.50;1.48;;;;;;;;;;5140455;27;20030;-47
2022/06/16 11:09:04;;;;;;;1.20;0.90;;;;;;;;;;5138937;27;20035;-45
2022/06/16 11:11:52;;;;;;;8.00;5.28;;;;;;;;;;5142219;27;20378;-49
2022/06/16 11:14:21;;;;;;;2.88;1.73;;;;;;;;;;5140831;27;20051;-49
2022/06/16 11:16:51;;;;;;;4.63;1.58;;;;;;;;;;5139246;27;20073;-45
2022/06/16 11:19:36;;;;;;;3.47;1.85;;;;;;;;;;5142064;27;20125;-48
2022/06/16 11:22:03;;;;;;;3.05;2.22;;;;;;;;;;5138570;27;20126;-47
2022/06/16 11:24:30;;;;;;;9.73;0.50;;;;;;;;;;5140403;27;20023;-49
2022/06/16 11:27:21;;;;;;;1.70;0.88;;;;;;;;;;5140732;27;20035;-50
2022/06/16 11:29:47;;;;;;;2.58;1.20;;;;;;;;;;5133420;27;20043;-45
2022/06/16 11:32:17;;;;;;;1.23;0.77;;;;;;;;;;5140827;27;20037;-49
2022/06/16 11:34:42;;;;;;;;;;;;;;;;;;5142090;27;20107;-51
2022/06/16 11:37:08;;;;;;;1.70;1.10;;;;;;;;;;5141505;27;19919;-53
2022/06/16 11:39:33;;;;;;;2.65;0.95;;;;;;;;;;5139286;27;20250;-48
2022/06/16 11:41:59;;;;;;;6.78;1.23;;;;;;;;;;5144069;27;20054;-46
2022/06/16 11:44:39;;;;;;;2.63;1.00;;;;;;;;;;5140739;27;20128;-48
2022/06/16 11:47:08;;;;;;;1.80;0.90;;;;;;;;;;5138756;27;20133;-52
2022/06/16 11:49:33;;;;;;;3.33;0.77;;;;;;;;;;5137905;27;20046;-46
2022/06/16 11:52:21;;;;;;;3.75;0.93;;;;;;;;;;5137623;27;20061;-45
2022/06/16 11:54:56;;;;;;;2.95;1.48;;;;;;;;;;5133259;27;20111;-47
2022/06/16 11:57:36;;;;;;;3.38;1.73;;;;;;;;;;5141796;27;20047;-45
2022/06/16 12:00:01;;;;;;;2.78;1.38;;;;;;;;;;5144172;27;20046;-45
2022/06/16 12:02:34;;;;;;;5.10;1.27;;;;;;;;;;5138984;27;20528;-48
2022/06/16 12:05:09;;;;;;;2.97;1.30;;;;;;;;;;5140429;27;20066;-49
2022/06/16 12:07:37;;;;;;;1.48;1.17;;;;;;;;;;5141849;27;20422;-48
2022/06/16 12:10:08;;;;;;;0.75;0.57;;;;;;;;;;5141083;27;20038;-47
2022/06/16 12:12:36;;;;;;;12.40;1.15;;;;;;;;;;5138448;27;20047;-48
2022/06/16 12:15:02;;;;;;;2.50;0.82;;;;;;;;;;5143657;27;20069;-47
2022/06/16 12:17:31;;;;;;;5.15;1.95;;;;;;;;;;5136272;27;20525;-48
2022/06/16 12:20:02;;;;;;;6.85;1.35;;;;;;;;;;5140752;27;20043;-46
2022/06/16 12:22:33;;;;;;;0.65;0.40;;;;;;;;;;5140329;27;20080;-48
2022/06/16 12:24:58;;;;;;;20.35;1.50;;;;;;;;;;5135851;27;20058;-47
2022/06/16 12:27:59;;;;;;;4.57;0.90;;;;;;;;;;5138299;27;20088;-47
2022/06/16 12:30:40;;;;;;;9.77;0.93;;;;;;;;;;5048784;28;20056;-48
2022/06/16 12:33:16;;;;;;;3.95;1.23;;;;;;;;;;5125561;27;20051;-47
2022/06/16 12:35:59;;;;;;;3.40;0.70;;;;;;;;;;5139857;27;20505;-46
2022/06/16 12:38:31;;;;;;;2.17;1.35;;;;;;;;;;5140368;27;20041;-48
2022/06/16 12:41:06;;;;;;;13.88;1.75;;;;;;;;;;5136254;27;20149;-47
2022/06/16 12:43:40;;;;;;;3.88;1.58;;;;;;;;;;5138730;27;20060;-49
2022/06/16 12:46:07;;;;;;;3.17;1.13;;;;;;;;;;5141666;27;20051;-44
2022/06/16 12:48:54;;;;;;;6.65;1.75;;;;;;;;;;5139955;27;20047;-49
2022/06/16 12:51:21;;;;;;;1.67;0.75;;;;;;;;;;5137018;27;20045;-49
2022/06/16 12:53:48;;;;;;;1.85;1.08;;;;;;;;;;5137910;27;20470;-46
2022/06/16 12:56:28;;;;;;;1.17;0.85;;;;;;;;;;5139653;27;20035;-47
2022/06/16 12:58:58;;;;;;;20.05;4.32;;;;;;;;;;5139632;27;20043;-47
2022/06/16 13:01:23;;;;;;;7.97;1.65;;;;;;;;;;5135393;27;20586;-47
2022/06/16 13:04:05;;;;;;;8.68;0.98;;;;;;;;;;5139609;27;20046;-49
2022/06/16 13:06:31;;;;;;;0.93;0.63;;;;;;;;;;5139972;27;20035;-47
2022/06/16 13:08:59;;;;;;;4.45;0.80;;;;;;;;;;5137470;27;20080;-46
2022/06/16 13:11:53;;;;;;;1.20;0.68;;;;;;;;;;5140843;27;20140;-48
2022/06/16 13:14:36;;;;;;;1.13;0.65;;;;;;;;;;5128284;27;20128;-46
2022/06/16 13:17:05;;;;;;;6.40;0.75;;;;;;;;;;5141638;27;20407;-50
2022/06/16 13:19:38;;;;;;;8.60;1.50;;;;;;;;;;5138123;27;20343;-50
2022/06/16 13:22:05;;;;;;;3.20;1.10;;;;;;;;;;5133899;27;20358;-47
2022/06/16 13:24:39;;;;;;;5.72;0.65;;;;;;;;;;5141354;27;20042;-46
2022/06/16 13:27:07;;;;;;;3.35;1.60;;;;;;;;;;5142617;27;20095;-48
2022/06/16 13:29:51;;;;;;;1.60;0.90;;;;;;;;;;5138839;27;20039;-45
2022/06/16 13:32:22;;;;;;;5.82;1.88;;;;;;;;;;5138144;27;20050;-48
2022/06/16 13:34:49;;;;;;;1.33;1.05;;;;;;;;;;5136959;27;20049;-50
2022/06/16 13:37:27;;;;;;;2.72;0.68;;;;;;;;;;5140271;27;20043;-45
2022/06/16 13:39:52;;;;;;;1.67;0.93;;;;;;;;;;5140428;27;20073;-46
2022/06/16 13:42:23;;;;;;;2.08;0.95;;;;;;;;;;5135888;27;20050;-47
2022/06/16 13:45:07;;;;;;;1.65;0.77;;;;;;;;;;5142803;27;20095;-51
2022/06/16 13:47:32;;;;;;;4.28;0.75;;;;;;;;;;5137427;27;20038;-47
2022/06/16 13:49:59;;;;;;;2.03;1.08;;;;;;;;;;5141459;27;20672;-49
2022/06/16 13:52:29;;;;;;;1.75;1.10;;;;;;;;;;5138729;27;20170;-50
2022/06/16 13:55:24;;;;;;;4.00;1.83;;;;;;;;;;5140607;27;20047;-48
2022/06/16 13:58:08;;;;;;;10.02;1.52;;;;;;;;;;5121865;27;20066;-50
2022/06/16 14:00:35;;;;;;;1.20;0.57;;;;;;;;;;5139077;27;20650;-46
2022/06/16 14:03:01;;;;;;;3.25;1.17;;;;;;;;;;5133593;27;20089;-54
2022/06/16 14:05:31;;;;;;;0.55;0.47;;;;;;;;;;5135980;27;20046;-46
2022/06/16 14:07:59;;;;;;;14.43;1.17;;;;;;;;;;5141690;27;20107;-47
2022/06/16 14:10:26;;;;;;;6.70;1.75;;;;;;;;;;5140065;27;20130;-49
2022/06/16 14:12:54;;;;;;;1.48;0.75;;;;;;;;;;5140806;27;20046;-49
2022/06/16 14:15:38;;;;;;;2.58;0.88;;;;;;;;;;5140226;27;20121;-51
2022/06/16 14:18:15;;;;;;;1.55;0.50;;;;;;;;;;5140276;27;20525;-49
2022/06/16 14:20:43;;;;;;;2.92;0.80;;;;;;;;;;5135359;27;20450;-51
2022/06/16 14:23:25;;;;;;;2.40;1.48;;;;;;;;;;5138694;27;20040;-46
2022/06/16 14:25:54;;;;;;;5.57;1.38;;;;;;;;;;5142602;27;20095;-48
2022/06/16 14:28:24;;;;;;;10.38;2.10;;;;;;;;;;5142568;27;20043;-50
2022/06/16 14:31:10;;;;;;;3.50;1.20;;;;;;;;;;5140481;27;20385;-52
2022/06/16 14:33:38;;;;;;;0.70;0.40;;;;;;;;;;5139030;27;20082;-47
2022/06/16 14:36:03;;;;;;;2.00;0.80;;;;;;;;;;5141764;27;20053;-46
2022/06/16 14:38:31;;;;;;;1.63;0.93;;;;;;;;;;5144696;27;20043;-46
2022/06/16 14:41:00;;;;;;;3.08;1.55;;;;;;;;;;5143824;27;20107;-50
2022/06/16 14:43:28;;;;;;;2.58;0.82;;;;;;;;;;5143618;27;20054;-49
2022/06/16 14:46:09;;;;;;;14.32;1.20;;;;;;;;;;5143147;27;20039;-46
2022/06/16 14:48:40;;;;;;;3.53;1.00;;;;;;;;;;5141450;27;20039;-50
2022/06/16 14:51:25;;;;;;;1.75;0.93;;;;;;;;;;5139720;27;20135;-47
2022/06/16 14:53:52;;;;;;;2.42;1.20;;;;;;;;;;5140958;27;20130;-48
2022/06/16 14:56:21;;;;;;;5.88;1.60;;;;;;;;;;5143574;27;20062;-49
2022/06/16 14:58:52;;;;;;;2.35;0.75;;;;;;;;;;5139573;27;20116;-50
2022/06/16 15:01:20;;;;;;;1.27;0.85;;;;;;;;;;5139967;27;20057;-47
2022/06/16 15:03:47;;;;;;;0.80;0.57;;;;;;;;;;5142971;27;20050;-52
2022/06/16 15:06:13;;;;;;;1.20;0.73;;;;;;;;;;5144015;27;20034;-47
2022/06/16 15:08:41;;;;;;;2.10;0.93;;;;;;;;;;5142951;27;20066;-49
2022/06/16 15:11:08;;;;;;;23.13;2.65;;;;;;;;;;5144012;27;20035;-48
2022/06/16 15:13:38;;;;;;;2.30;0.80;;;;;;;;;;5140203;27;20540;-47